Time;durP1;ratioP1;P1;durP2;ratioP2;P2;SDS_P1;SDS_P2;PMS_P1;PMS_P2;Temp;Humidity;BMP_temperature;BMP_pressure;BME280_temperature;BME280_humidity;BME280_pressure;Samples;Min_cycle;Max_cycle;Signal;HPM_P1;HPM_P2
2021/01/17 00:01:05;;;;;;;23.50;16.80;;;;;;;0.83;64.09;101477.13;5117999;28;20465;-74
2021/01/17 00:03:31;;;;;;;24.03;16.90;;;;;;;1.49;63.18;101462.19;5118230;28;20416;-73
2021/01/17 00:05:56;;;;;;;22.63;16.50;;;;;;;1.47;62.90;101460.31;5118530;28;20417;-73
2021/01/17 00:08:22;;;;;;;22.27;15.73;;;;;;;1.58;62.40;101460.94;5118014;28;20180;-72
2021/01/17 00:10:48;;;;;;;22.77;16.73;;;;;;;1.61;61.62;101459.44;5117953;28;20492;-73
2021/01/17 00:13:13;;;;;;;19.77;16.53;;;;;;;1.71;62.04;101455.72;5118440;28;20410;-74
2021/01/17 00:15:39;;;;;;;22.70;17.00;;;;;;;1.46;62.35;101453.41;5117984;28;20171;-73
2021/01/17 00:18:05;;;;;;;21.13;16.90;;;;;;;1.45;62.33;101449.97;5117902;28;20168;-75
2021/01/17 01:04:16;;;;;;;23.80;17.07;;;;;;;1.45;62.21;101438.81;5086250;28;20453;-76
2021/01/17 01:06:41;;;;;;;23.10;17.17;;;;;;;1.74;62.96;101434.44;5097154;28;20426;-75
2021/01/17 01:09:13;;;;;;;23.70;17.70;;;;;;;1.57;63.38;101434.38;5097085;28;20420;-75
2021/01/17 01:11:39;;;;;;;20.33;16.13;;;;;;;1.55;63.30;101440.22;5096933;28;20168;-76
2021/01/17 01:14:05;;;;;;;22.23;16.67;;;;;;;1.78;61.81;101436.38;5097411;28;20429;-75
2021/01/17 01:16:30;;;;;;;19.83;16.00;;;;;;;1.79;61.52;101438.16;5096871;28;20295;-74
2021/01/17 01:18:56;;;;;;;20.33;15.80;;;;;;;1.67;63.10;101430.63;5096958;28;20724;-75
2021/01/17 01:21:31;;;;;;;20.20;16.57;;;;;;;1.74;63.23;101435.31;5096378;28;20495;-75
2021/01/17 01:23:57;;;;;;;21.27;16.77;;;;;;;1.33;62.86;101428.69;5097038;28;20446;-75
2021/01/17 01:36:42;;;;;;;24.03;16.90;;;;;;;1.52;62.81;101428.06;5096865;28;20927;-75
2021/01/17 01:39:08;;;;;;;21.20;17.10;;;;;;;1.76;62.21;101415.72;5096944;28;20455;-75
2021/01/17 01:41:41;;;;;;;21.93;16.93;;;;;;;1.64;62.31;101427.91;5096733;28;20410;-74
2021/01/17 01:44:09;;;;;;;21.47;18.00;;;;;;;1.45;63.43;101420.81;5096824;28;20421;-76
2021/01/17 01:46:38;;;;;;;20.27;16.60;;;;;;;1.04;63.76;101419.28;5096188;28;20546;-74
2021/01/17 01:49:03;;;;;;;23.60;17.60;;;;;;;1.33;62.42;101416.72;5096972;28;20512;-74
2021/01/17 01:51:28;;;;;;;25.60;17.03;;;;;;;1.65;61.57;101417.69;5096973;28;20467;-77
2021/01/17 01:53:55;;;;;;;24.70;18.00;;;;;;;1.48;61.78;101415.84;5096825;28;20187;-74
2021/01/17 01:56:21;;;;;;;23.17;17.20;;;;;;;1.18;63.81;101420.97;5095948;28;20215;-75
2021/01/17 01:58:47;;;;;;;22.93;17.63;;;;;;;1.23;62.88;101418.66;5096912;28;20503;-75
2021/01/17 02:01:12;;;;;;;24.90;18.87;;;;;;;1.12;66.76;101418.03;5096385;28;20465;-74
2021/01/17 02:03:38;;;;;;;26.13;17.30;;;;;;;1.20;64.56;101419.38;5097279;28;20228;-75
2021/01/17 02:06:11;;;;;;;25.57;19.20;;;;;;;1.19;64.49;101409.88;5100523;28;20222;-75
2021/01/17 02:09:12;;;;;;;23.87;18.13;;;;;;;1.09;64.06;101407.59;5100227;28;20200;-75
2021/01/17 02:12:16;;;;;;;22.40;16.83;;;;;;;0.84;64.89;101407.03;5088941;28;20438;-75
2021/01/17 02:14:43;;;;;;;26.30;17.77;;;;;;;0.86;66.04;101407.13;5068203;28;20436;-74
2021/01/17 02:17:13;;;;;;;23.30;17.77;;;;;;;1.17;66.19;101403.78;5099911;28;20558;-75
2021/01/17 02:20:10;;;;;;;23.27;17.83;;;;;;;1.17;64.94;101402.09;5100598;28;20418;-75
2021/01/17 02:22:41;;;;;;;23.83;17.60;;;;;;;1.58;63.84;101402.72;5101136;28;20448;-75
2021/01/17 02:25:08;;;;;;;26.70;19.30;;;;;;;0.87;65.04;101408.91;5099219;28;20419;-75
2021/01/17 02:27:33;;;;;;;30.73;18.77;;;;;;;0.99;66.83;101409.63;5099800;28;20802;-75
2021/01/17 02:30:02;;;;;;;24.43;17.93;;;;;;;1.06;66.53;101405.72;5099261;28;20493;-75
2021/01/17 02:32:29;;;;;;;24.00;18.23;;;;;;;1.09;64.64;101405.03;5099611;28;20180;-75
2021/01/17 02:34:55;;;;;;;26.27;18.97;;;;;;;1.58;64.15;101399.25;5098796;28;20444;-75
2021/01/17 02:37:33;;;;;;;24.20;18.17;;;;;;;0.28;68.00;101402.75;5099192;28;20457;-75
2021/01/17 02:40:10;;;;;;;24.00;19.23;;;;;;;0.20;67.24;101410.78;5098884;28;20183;-75
2021/01/17 02:42:37;;;;;;;28.33;18.27;;;;;;;0.22;67.21;101404.97;5099644;28;20875;-76
2021/01/17 02:45:04;;;;;;;23.23;19.80;;;;;;;1.06;65.18;101397.16;5099427;28;20421;-75
2021/01/17 02:47:29;;;;;;;24.60;19.07;;;;;;;1.02;65.20;101397.78;5098747;28;20457;-75
2021/01/17 02:49:54;;;;;;;25.87;18.43;;;;;;;1.16;63.99;101394.31;5099551;28;20442;-75
2021/01/17 02:52:28;;;;;;;24.97;18.50;;;;;;;0.90;66.37;101398.81;5099325;28;20205;-75
2021/01/17 02:54:54;;;;;;;25.07;20.87;;;;;;;0.77;66.49;101391.16;5099332;28;20521;-75
2021/01/17 02:57:23;;;;;;;28.20;18.27;;;;;;;1.18;65.99;101396.19;5098710;28;20458;-74
2021/01/17 02:59:55;;;;;;;25.57;19.20;;;;;;;1.16;65.67;101390.06;5098388;28;20418;-75
2021/01/17 03:02:35;;;;;;;24.37;18.63;;;;;;;0.79;65.45;101394.72;5099185;28;20830;-75
2021/01/17 03:05:05;;;;;;;29.23;19.33;;;;;;;1.40;64.34;101393.97;5098226;28;20871;-76
2021/01/17 03:07:32;;;;;;;26.30;20.00;;;;;;;1.22;66.23;101389.53;5098941;28;20499;-75
2021/01/17 03:10:00;;;;;;;24.47;18.30;;;;;;;0.98;66.24;101387.28;5098899;28;20790;-76
2021/01/17 03:12:26;;;;;;;26.33;19.53;;;;;;;0.87;65.75;101398.63;5099010;28;20492;-74
2021/01/17 03:14:52;;;;;;;23.83;19.30;;;;;;;0.87;65.88;101396.06;5098671;28;20910;-74
2021/01/17 03:17:18;;;;;;;25.07;19.43;;;;;;;0.57;66.26;101383.16;5098154;28;20208;-75
2021/01/17 03:19:43;;;;;;;24.00;18.00;;;;;;;0.41;67.01;101398.41;5098566;28;20444;-75
2021/01/17 03:22:08;;;;;;;23.93;18.37;;;;;;;1.26;66.17;101390.59;5099047;28;20164;-74
2021/01/17 03:24:34;;;;;;;23.83;18.40;;;;;;;1.12;65.79;101389.78;5098721;28;20631;-74
2021/01/17 03:26:59;;;;;;;23.50;18.40;;;;;;;1.42;64.22;101388.13;5098667;28;20207;-74
2021/01/17 03:29:24;;;;;;;29.43;19.83;;;;;;;0.41;67.16;101386.47;5098811;28;20172;-74
2021/01/17 03:31:50;;;;;;;26.23;19.20;;;;;;;1.26;65.38;101385.44;5097838;28;20568;-74
2021/01/17 03:34:15;;;;;;;26.90;19.53;;;;;;;0.96;64.75;101380.31;5098370;28;20322;-75
2021/01/17 03:36:40;;;;;;;28.80;20.70;;;;;;;0.83;66.80;101392.41;5098625;28;20232;-75
2021/01/17 03:39:06;;;;;;;26.10;19.57;;;;;;;1.45;64.60;101388.28;5098343;28;20254;-75
2021/01/17 03:41:31;;;;;;;26.97;19.37;;;;;;;1.49;63.64;101384.22;5080481;28;20171;-74
2021/01/17 03:43:56;;;;;;;25.27;18.73;;;;;;;0.80;65.73;101381.09;5098252;28;20191;-74
2021/01/17 03:46:22;;;;;;;27.43;19.30;;;;;;;0.30;67.57;101390.94;5098254;28;20211;-75
2021/01/17 03:48:49;;;;;;;24.70;18.33;;;;;;;-0.01;68.62;101389.03;5098194;28;20212;-75
2021/01/17 03:51:14;;;;;;;25.97;18.70;;;;;;;0.55;67.32;101379.59;5098338;28;20164;-74
2021/01/17 03:53:39;;;;;;;25.50;18.70;;;;;;;1.12;66.52;101376.94;5098105;28;20433;-77
2021/01/17 03:56:05;;;;;;;27.00;20.10;;;;;;;0.48;66.95;101382.59;5097834;28;20196;-72
2021/01/17 03:58:30;;;;;;;29.37;20.10;;;;;;;1.26;64.29;101377.75;5104175;28;20218;-76
2021/01/17 04:00:55;;;;;;;24.93;18.50;;;;;;;1.55;64.65;101379.41;5104860;28;20196;-78
2021/01/17 04:03:21;;;;;;;27.47;19.90;;;;;;;1.55;64.24;101369.13;5109898;28;20244;-78
2021/01/17 04:05:46;;;;;;;31.73;20.97;;;;;;;1.74;64.85;101375.31;5118665;28;20451;-81
2021/01/17 04:08:12;;;;;;;25.47;19.60;;;;;;;1.97;63.71;101363.72;5118403;28;20553;-80
2021/01/17 04:10:37;;;;;;;26.50;19.83;;;;;;;1.33;63.28;101367.03;5118302;28;20527;-78
2021/01/17 04:13:02;;;;;;;26.47;19.10;;;;;;;1.77;63.10;101368.66;5118648;28;20528;-78
2021/01/17 04:15:28;;;;;;;28.47;20.13;;;;;;;1.79;62.95;101355.91;5118384;28;20529;-77
2021/01/17 04:17:53;;;;;;;26.33;18.87;;;;;;;1.95;65.15;101366.22;5117964;28;20222;-77
2021/01/17 04:20:18;;;;;;;27.17;19.90;;;;;;;1.55;64.12;101371.69;5118141;28;20212;-77
2021/01/17 04:22:44;;;;;;;25.93;19.90;;;;;;;1.64;63.87;101369.66;5117923;28;20167;-76
2021/01/17 04:25:09;;;;;;;29.50;21.00;;;;;;;1.75;63.57;101366.81;5117952;28;20171;-77
2021/01/17 04:27:35;;;;;;;26.57;20.70;;;;;;;1.55;63.62;101370.84;5117530;28;20200;-74
2021/01/17 04:30:00;;;;;;;26.10;20.57;;;;;;;1.79;64.41;101379.03;5117792;28;20233;-77
2021/01/17 04:32:26;;;;;;;25.20;19.60;;;;;;;1.48;65.08;101372.16;5117049;28;20216;-76
2021/01/17 04:34:51;;;;;;;29.27;20.20;;;;;;;1.46;63.22;101372.09;5118273;28;20187;-75
2021/01/17 04:37:20;;;;;;;25.77;19.13;;;;;;;1.65;63.61;101376.56;5117605;28;20215;-75
2021/01/17 04:39:46;;;;;;;29.80;22.37;;;;;;;1.61;63.59;101374.63;5117668;28;20175;-76
2021/01/17 04:42:16;;;;;;;25.40;19.07;;;;;;;1.12;64.83;101370.16;5118100;28;20469;-74
2021/01/17 04:44:43;;;;;;;26.60;20.00;;;;;;;1.45;63.49;101379.72;5117724;28;20180;-75
2021/01/17 04:47:09;;;;;;;26.97;19.67;;;;;;;1.51;63.56;101369.75;5116965;28;20424;-77
2021/01/17 04:49:40;;;;;;;30.23;21.00;;;;;;;1.52;64.32;101376.69;5117870;28;20414;-77
2021/01/17 04:52:12;;;;;;;27.10;20.03;;;;;;;1.51;63.66;101377.47;5116971;28;20167;-76
2021/01/17 04:54:38;;;;;;;26.43;19.97;;;;;;;1.55;64.76;101374.28;5117573;28;21630;-78
2021/01/17 04:57:08;;;;;;;24.83;18.37;;;;;;;1.50;64.33;101381.75;5117381;28;20500;-77
2021/01/17 04:59:45;;;;;;;28.13;19.60;;;;;;;1.45;65.18;101384.84;5116639;28;20175;-79
2021/01/17 05:02:28;;;;;;;24.40;18.63;;;;;;;1.29;65.54;101380.50;5117466;28;20423;-78
2021/01/17 05:05:07;;;;;;;24.17;18.43;;;;;;;1.23;64.76;101382.72;5117552;28;20873;-77
2021/01/17 05:07:37;;;;;;;25.27;18.83;;;;;;;1.59;64.90;101380.47;5117621;28;20440;-79
2021/01/17 05:10:10;;;;;;;26.27;19.77;;;;;;;1.29;65.38;101383.94;5116819;28;20440;-79
2021/01/17 05:12:50;;;;;;;27.03;19.43;;;;;;;1.46;65.99;101381.47;5116759;28;20424;-80
2021/01/17 05:15:19;;;;;;;25.40;19.37;;;;;;;1.41;65.49;101380.31;5117384;28;20433;-76
2021/01/17 05:17:44;;;;;;;25.70;19.67;;;;;;;1.38;64.49;101381.03;5117071;28;20730;-75
2021/01/17 05:20:10;;;;;;;28.17;20.10;;;;;;;1.33;65.23;101392.72;5117262;28;20426;-76
2021/01/17 05:22:36;;;;;;;26.70;20.20;;;;;;;1.30;65.87;101385.72;5117806;28;20180;-76
2021/01/17 05:25:03;;;;;;;28.30;20.80;;;;;;;1.71;63.96;101393.16;5117343;28;20172;-75
2021/01/17 05:27:28;;;;;;;31.00;21.47;;;;;;;1.33;65.21;101388.47;5117431;28;20172;-76
2021/01/17 05:29:54;;;;;;;30.00;21.23;;;;;;;1.22;65.55;101386.06;5117688;28;20405;-76
2021/01/17 05:32:19;;;;;;;30.10;21.63;;;;;;;1.14;66.09;101388.22;5117259;28;20175;-76
2021/01/17 05:34:44;;;;;;;26.07;19.40;;;;;;;1.41;64.18;101393.16;5117203;28;20187;-75
2021/01/17 05:37:12;;;;;;;28.33;20.40;;;;;;;1.16;65.23;101395.22;5117844;28;20194;-75
2021/01/17 05:39:55;;;;;;;29.60;19.57;;;;;;;0.91;65.59;101398.00;5121102;27;20179;-75
2021/01/17 05:42:22;;;;;;;30.30;19.67;;;;;;;0.82;66.55;101397.47;5121125;27;20409;-75
2021/01/17 05:44:47;;;;;;;24.77;20.10;;;;;;;1.30;65.95;101400.25;5121178;28;20420;-75
2021/01/17 05:47:13;;;;;;;25.20;19.70;;;;;;;1.20;64.99;101398.81;5121060;28;20513;-75
2021/01/17 05:49:38;;;;;;;25.23;19.20;;;;;;;1.01;66.37;101399.44;5121252;27;20164;-75
2021/01/17 05:52:11;;;;;;;29.10;18.80;;;;;;;0.86;66.29;101404.53;5120771;28;20176;-75
2021/01/17 05:54:40;;;;;;;30.93;20.80;;;;;;;1.14;65.08;101406.19;5120856;28;20174;-75
2021/01/17 05:57:12;;;;;;;26.70;19.37;;;;;;;0.78;66.94;101405.78;5120686;28;20460;-75
2021/01/17 05:59:37;;;;;;;27.50;19.60;;;;;;;0.94;65.31;101399.88;5120776;28;20416;-75
2021/01/17 06:02:10;;;;;;;29.60;20.93;;;;;;;0.93;65.66;101406.66;5121029;28;20416;-75
2021/01/17 06:04:36;;;;;;;32.40;21.47;;;;;;;1.07;65.76;101401.47;5120495;28;20223;-75
2021/01/17 06:07:01;;;;;;;29.27;21.63;;;;;;;1.16;65.67;101405.50;5119901;28;20501;-75
2021/01/17 06:09:27;;;;;;;26.30;19.90;;;;;;;0.93;66.22;101414.38;5120081;28;20171;-76
2021/01/17 06:11:56;;;;;;;26.53;21.00;;;;;;;0.80;65.94;101412.78;5119832;28;20180;-75
2021/01/17 06:14:25;;;;;;;30.50;20.47;;;;;;;0.90;67.14;101411.63;5120589;27;20532;-76
2021/01/17 06:16:57;;;;;;;27.57;20.10;;;;;;;1.18;66.42;101414.16;5120821;27;20461;-76
2021/01/17 06:19:30;;;;;;;28.70;19.90;;;;;;;0.92;67.05;101412.63;5120297;28;20424;-76
2021/01/17 06:21:58;;;;;;;31.73;20.37;;;;;;;0.86;66.47;101417.38;5120366;27;20409;-76
2021/01/17 06:24:33;;;;;;;34.87;22.27;;;;;;;0.99;66.07;101417.31;5120234;28;20413;-76
2021/01/17 06:27:00;;;;;;;31.27;22.17;;;;;;;0.77;66.52;101411.69;5120168;28;20428;-76
2021/01/17 06:29:41;;;;;;;31.33;21.23;;;;;;;0.67;67.67;101415.38;5119364;28;20414;-76
2021/01/17 06:32:13;;;;;;;28.60;20.37;;;;;;;0.77;66.86;101421.97;5120171;28;20445;-76
2021/01/17 06:34:48;;;;;;;29.90;20.50;;;;;;;0.62;67.10;101415.13;5120124;28;20802;-76
2021/01/17 06:37:14;;;;;;;28.80;21.00;;;;;;;0.88;67.03;101420.03;5120002;28;20460;-76
2021/01/17 06:39:45;;;;;;;32.03;21.87;;;;;;;0.47;67.16;101421.88;5119990;28;20409;-76
2021/01/17 06:42:12;;;;;;;31.67;21.87;;;;;;;0.66;66.53;101429.00;5120092;28;20413;-77
2021/01/17 06:44:38;;;;;;;30.83;21.80;;;;;;;0.38;67.00;101431.56;5120287;28;20409;-76
2021/01/17 06:47:03;;;;;;;28.93;20.37;;;;;;;0.42;67.37;101429.28;5119900;28;20419;-77
2021/01/17 06:49:33;;;;;;;29.93;20.03;;;;;;;0.50;67.57;101425.50;5118861;28;20432;-76
2021/01/17 06:52:02;;;;;;;28.03;20.20;;;;;;;0.25;67.48;101424.78;5119367;28;20320;-76
2021/01/17 06:54:32;;;;;;;28.73;20.43;;;;;;;0.60;66.67;101419.25;5119750;28;20803;-75
2021/01/17 06:57:00;;;;;;;28.97;19.80;;;;;;;0.28;68.65;101420.72;5119614;28;20862;-75
2021/01/17 06:59:32;;;;;;;30.20;20.27;;;;;;;0.36;67.97;101422.91;5119574;28;20413;-76
2021/01/17 07:02:13;;;;;;;27.63;20.30;;;;;;;0.41;67.17;101427.50;5119638;28;20504;-77
2021/01/17 07:04:56;;;;;;;25.17;18.77;;;;;;;-0.03;68.69;101423.94;5119484;28;20725;-76
2021/01/17 07:07:40;;;;;;;34.37;22.90;;;;;;;0.37;68.62;101430.69;5119216;28;20450;-77
2021/01/17 07:10:07;;;;;;;31.90;22.97;;;;;;;0.66;67.64;101436.69;5119405;27;20889;-76
2021/01/17 07:12:59;;;;;;;33.30;23.13;;;;;;;0.43;67.79;101440.44;5118829;28;20421;-76
2021/01/17 07:15:29;;;;;;;35.23;22.40;;;;;;;-0.35;70.56;101440.69;5118475;28;20397;-76
2021/01/17 07:18:16;;;;;;;31.67;21.90;;;;;;;0.42;68.01;101443.78;5119206;28;20960;-76
2021/01/17 07:20:46;;;;;;;30.10;20.40;;;;;;;0.38;68.80;101437.59;5119005;28;20464;-75
2021/01/17 07:23:13;;;;;;;35.00;22.63;;;;;;;0.42;68.88;101441.22;5119309;28;20487;-78
2021/01/17 07:25:40;;;;;;;30.47;22.07;;;;;;;0.23;68.72;101439.19;5119274;28;20424;-76
2021/01/17 07:28:15;;;;;;;29.60;21.40;;;;;;;0.29;68.10;101434.44;5119056;28;20457;-77
2021/01/17 07:30:49;;;;;;;34.60;22.40;;;;;;;0.32;68.49;101438.06;5119072;28;20412;-77
2021/01/17 07:33:17;;;;;;;33.73;21.60;;;;;;;0.33;68.26;101444.97;5119066;28;20419;-77
2021/01/17 07:35:47;;;;;;;31.57;21.00;;;;;;;0.06;68.29;101433.00;5119015;28;20421;-77
2021/01/17 07:38:20;;;;;;;29.73;21.10;;;;;;;0.28;67.68;101438.66;5118962;28;20446;-77
2021/01/17 07:40:56;;;;;;;29.10;19.97;;;;;;;0.15;68.85;101448.97;5117966;28;20421;-77
2021/01/17 07:43:30;;;;;;;27.50;20.20;;;;;;;0.10;68.99;101455.47;5118868;28;20840;-77
2021/01/17 07:46:00;;;;;;;30.23;21.10;;;;;;;0.20;68.62;101457.81;5118041;28;20508;-78
2021/01/17 07:48:26;;;;;;;32.80;21.53;;;;;;;0.20;67.33;101457.81;5118527;28;20414;-77
2021/01/17 07:50:53;;;;;;;32.40;19.97;;;;;;;0.08;69.29;101463.09;5118326;28;20447;-76
2021/01/17 07:53:37;;;;;;;29.00;20.07;;;;;;;0.54;68.37;101465.06;5118665;27;20418;-77
2021/01/17 07:56:13;;;;;;;28.63;19.83;;;;;;;0.08;68.82;101478.47;5118401;28;20858;-76
2021/01/17 07:58:44;;;;;;;30.30;22.33;;;;;;;0.33;67.54;101475.75;5118671;28;20810;-77
2021/01/17 08:01:30;;;;;;;31.37;22.83;;;;;;;0.60;67.04;101474.84;5118468;28;20410;-75
2021/01/17 08:04:16;;;;;;;27.97;18.97;;;;;;;0.48;67.84;101477.53;5118502;28;20441;-77
2021/01/17 08:06:42;;;;;;;29.60;20.20;;;;;;;0.64;66.86;101481.94;5111269;28;20417;-75
2021/01/17 08:09:09;;;;;;;27.33;20.73;;;;;;;0.52;67.06;101479.47;5117762;28;20479;-76
2021/01/17 08:11:49;;;;;;;30.03;20.03;;;;;;;0.52;66.81;101489.75;5118216;28;20258;-75
2021/01/17 08:14:24;;;;;;;27.70;19.70;;;;;;;0.83;65.47;101486.50;5121915;28;20421;-74
2021/01/17 08:17:11;;;;;;;26.20;19.97;;;;;;;0.63;66.65;101482.72;5117473;28;20567;-76
2021/01/17 08:19:56;;;;;;;28.30;20.50;;;;;;;0.49;67.61;101487.88;5117637;28;20706;-76
2021/01/17 08:22:21;;;;;;;29.80;20.73;;;;;;;0.32;68.69;101486.81;5118074;28;20405;-76
2021/01/17 08:24:57;;;;;;;27.97;19.60;;;;;;;0.74;67.13;101488.50;5118185;28;20427;-76
2021/01/17 08:27:31;;;;;;;29.80;21.30;;;;;;;1.01;66.17;101494.44;5118600;28;20267;-75
2021/01/17 08:30:03;;;;;;;27.97;20.67;;;;;;;1.03;65.83;101498.00;5117947;28;20412;-75
2021/01/17 08:32:41;;;;;;;28.63;20.03;;;;;;;0.73;66.12;101494.44;5118135;28;20668;-76
2021/01/17 08:35:15;;;;;;;26.43;19.57;;;;;;;1.36;65.56;101497.34;5118252;28;20401;-76
2021/01/17 08:37:48;;;;;;;24.93;18.70;;;;;;;2.12;62.63;101505.13;5117868;28;20471;-76
2021/01/17 08:40:18;;;;;;;25.40;19.33;;;;;;;2.84;59.38;101506.53;5117882;28;20421;-76
2021/01/17 08:42:52;;;;;;;26.70;19.17;;;;;;;2.68;59.17;101503.94;5117226;28;20527;-76
2021/01/17 08:45:20;;;;;;;27.27;19.10;;;;;;;1.30;63.63;101513.25;5117811;28;20417;-76
2021/01/17 08:47:47;;;;;;;26.17;18.50;;;;;;;1.13;63.73;101515.72;5117068;28;20470;-77
2021/01/17 08:50:33;;;;;;;27.13;18.97;;;;;;;1.28;63.81;101520.00;5117596;28;20783;-76
2021/01/17 08:53:26;;;;;;;29.40;20.77;;;;;;;1.74;62.41;101522.72;5117766;28;20444;-76
2021/01/17 08:55:53;;;;;;;31.00;20.67;;;;;;;1.19;63.45;101533.16;5116952;28;20454;-77
2021/01/17 08:58:24;;;;;;;24.13;18.37;;;;;;;1.67;63.23;101536.88;5117688;28;20494;-75
2021/01/17 09:00:52;;;;;;;25.50;19.30;;;;;;;0.96;64.24;101532.69;5117508;28;20420;-75
2021/01/17 09:03:31;;;;;;;25.33;20.50;;;;;;;1.22;64.59;101542.75;5117675;28;20878;-76
2021/01/17 09:05:58;;;;;;;25.50;18.90;;;;;;;1.17;64.74;101537.34;5117438;28;20451;-76
2021/01/17 09:08:24;;;;;;;22.87;18.30;;;;;;;1.19;64.15;101546.00;5117549;28;20420;-76
2021/01/17 09:10:50;;;;;;;24.53;18.53;;;;;;;1.06;63.86;101552.09;5117348;28;20409;-75
2021/01/17 09:13:19;;;;;;;26.00;18.30;;;;;;;0.95;63.80;101542.84;5119752;28;20417;-76
2021/01/17 09:16:05;;;;;;;26.10;18.87;;;;;;;1.24;63.80;101549.75;5121753;28;20164;-75
2021/01/17 09:18:36;;;;;;;23.00;17.77;;;;;;;1.23;63.05;101553.13;5121454;28;20473;-76
2021/01/17 09:21:02;;;;;;;26.00;19.83;;;;;;;0.38;65.99;101560.72;5121306;28;20428;-76
2021/01/17 09:23:28;;;;;;;24.87;18.77;;;;;;;0.37;65.03;101571.75;5121342;28;20455;-75
2021/01/17 09:26:00;;;;;;;28.07;19.63;;;;;;;0.66;65.36;101572.72;5121429;28;20677;-75
2021/01/17 09:28:26;;;;;;;22.43;18.30;;;;;;;1.31;63.48;101569.00;5121792;27;20168;-76
2021/01/17 09:30:54;;;;;;;28.37;20.17;;;;;;;1.32;63.68;101574.22;5120381;28;20685;-75
2021/01/17 09:33:20;;;;;;;22.37;18.03;;;;;;;1.31;63.57;101575.03;5121229;28;20440;-76
2021/01/17 09:35:47;;;;;;;27.10;19.00;;;;;;;1.07;64.00;101582.13;5120701;28;20459;-76
2021/01/17 09:38:17;;;;;;;24.67;19.57;;;;;;;0.99;65.07;101589.34;5120576;28;20413;-76
2021/01/17 09:40:45;;;;;;;25.83;18.63;;;;;;;0.82;64.50;101589.97;5121089;28;20474;-76
2021/01/17 09:43:10;;;;;;;30.37;20.03;;;;;;;1.29;62.92;101584.31;5121605;28;20431;-75
2021/01/17 09:45:36;;;;;;;24.40;18.00;;;;;;;0.81;64.62;101593.31;5121035;28;20425;-77
2021/01/17 09:48:02;;;;;;;27.20;18.57;;;;;;;0.85;65.38;101590.16;5120987;28;20175;-77
2021/01/17 09:50:34;;;;;;;24.63;18.10;;;;;;;1.31;64.48;101585.31;5120540;28;20533;-77
2021/01/17 09:53:07;;;;;;;26.70;20.23;;;;;;;1.66;62.04;101581.41;5120960;28;20186;-75
2021/01/17 09:55:39;;;;;;;27.60;19.20;;;;;;;1.67;62.67;101588.28;5120860;28;20421;-76
2021/01/17 09:58:05;;;;;;;24.60;17.77;;;;;;;1.79;61.82;101588.13;5120779;28;20824;-75
2021/01/17 10:00:31;;;;;;;27.47;18.30;;;;;;;1.22;62.91;101587.31;5120712;28;20514;-76
2021/01/17 10:02:56;;;;;;;26.40;19.10;;;;;;;1.38;62.60;101590.81;5120845;28;20172;-76
2021/01/17 10:05:31;;;;;;;25.70;19.23;;;;;;;1.87;61.47;101580.88;5120737;28;20232;-76
2021/01/17 10:08:03;;;;;;;23.83;17.73;;;;;;;1.54;62.05;101588.34;5120657;28;20179;-76
2021/01/17 10:10:28;;;;;;;27.53;18.27;;;;;;;1.88;60.47;101581.75;5120464;28;20713;-77
2021/01/17 10:12:54;;;;;;;23.00;17.87;;;;;;;1.38;62.96;101583.09;5120799;28;20420;-76
2021/01/17 10:15:19;;;;;;;29.10;19.00;;;;;;;1.78;61.94;101581.22;5120942;28;20199;-76
2021/01/17 10:17:49;;;;;;;24.77;18.07;;;;;;;2.06;60.69;101597.38;5120372;28;20883;-76
2021/01/17 10:20:27;;;;;;;25.17;17.80;;;;;;;1.84;61.43;101584.16;5120284;28;20172;-76
2021/01/17 10:22:57;;;;;;;23.17;18.23;;;;;;;2.42;60.42;101583.19;5120296;28;20423;-76
2021/01/17 10:25:22;;;;;;;24.67;18.87;;;;;;;2.30;58.52;101583.38;5119067;28;20417;-77
2021/01/17 10:27:47;;;;;;;24.60;18.27;;;;;;;2.55;58.29;101579.59;5120245;28;20433;-78
2021/01/17 10:30:19;;;;;;;24.87;17.83;;;;;;;2.10;59.51;101578.78;5120085;28;20250;-75
2021/01/17 10:32:45;;;;;;;21.70;16.50;;;;;;;2.08;58.83;101583.78;5119102;28;20284;-77
2021/01/17 10:35:10;;;;;;;22.90;17.13;;;;;;;2.32;58.08;101581.75;5119904;28;20543;-77
2021/01/17 10:37:37;;;;;;;22.07;17.70;;;;;;;2.96;57.87;101573.22;5119744;27;20225;-77
2021/01/17 10:40:03;;;;;;;22.17;16.77;;;;;;;3.15;56.53;101571.66;5120134;28;20236;-78
2021/01/17 10:42:32;;;;;;;20.30;16.50;;;;;;;2.93;55.79;101579.94;5119043;28;20421;-76
2021/01/17 10:45:08;;;;;;;22.50;17.80;;;;;;;3.39;55.19;101572.06;5119125;28;20227;-77
2021/01/17 10:47:56;;;;;;;24.20;19.07;;;;;;;3.23;55.75;101582.38;5119829;28;20466;-77
2021/01/17 10:50:24;;;;;;;21.20;17.00;;;;;;;3.73;55.76;101578.94;5098458;28;20407;-75
2021/01/17 10:53:20;;;;;;;25.53;18.47;;;;;;;3.54;53.24;101579.69;5098673;28;20505;-75
2021/01/17 10:55:49;;;;;;;20.10;17.30;;;;;;;3.92;52.92;101573.03;5099197;28;20785;-76
2021/01/17 10:58:20;;;;;;;22.10;17.10;;;;;;;4.12;51.58;101576.59;5099229;28;20419;-76
2021/01/17 11:00:56;;;;;;;21.97;17.70;;;;;;;3.88;54.00;101590.06;5099078;28;20780;-81
2021/01/17 11:03:28;;;;;;;20.73;16.83;;;;;;;3.19;54.09;101589.94;5099207;28;20937;-79
2021/01/17 11:06:06;;;;;;;18.90;15.97;;;;;;;3.61;52.63;101593.81;5106734;28;20466;-79
2021/01/17 11:08:34;;;;;;;20.50;15.50;;;;;;;3.49;52.92;101592.38;5124385;27;20393;-79
2021/01/17 11:11:00;;;;;;;20.50;16.80;;;;;;;2.96;54.30;101593.84;5120300;28;20413;-76
2021/01/17 11:13:25;;;;;;;19.20;15.47;;;;;;;2.97;54.42;101589.59;5119321;28;20427;-75
2021/01/17 11:15:51;;;;;;;21.07;17.23;;;;;;;2.75;55.04;101588.41;5119170;28;20484;-78
2021/01/17 11:18:22;;;;;;;20.40;16.33;;;;;;;3.70;52.11;101581.38;5122005;28;20176;-81
2021/01/17 11:20:54;;;;;;;21.97;15.90;;;;;;;3.39;52.41;101584.94;5129373;28;20167;-79
2021/01/17 11:23:22;;;;;;;21.40;16.50;;;;;;;3.71;52.78;101581.47;5132352;28;20401;-79
2021/01/17 11:25:58;;;;;;;19.93;15.83;;;;;;;4.58;49.82;101579.66;5129611;28;20452;-80
2021/01/17 11:28:26;;;;;;;20.70;16.33;;;;;;;3.43;53.33;101576.56;5124766;28;20408;-78
2021/01/17 11:30:51;;;;;;;21.63;16.43;;;;;;;2.99;55.26;101570.84;5120737;28;20534;-79
2021/01/17 11:33:17;;;;;;;21.10;16.50;;;;;;;3.52;54.39;101565.88;5123083;28;20845;-78
2021/01/17 11:35:42;;;;;;;20.57;16.63;;;;;;;3.22;53.57;101570.28;5120857;28;20423;-78
2021/01/17 11:38:08;;;;;;;20.50;17.10;;;;;;;3.03;54.97;101570.19;5118606;28;20321;-78
2021/01/17 11:40:34;;;;;;;21.77;17.20;;;;;;;2.25;56.89;101579.63;5119147;27;20178;-78
2021/01/17 11:43:07;;;;;;;21.33;17.70;;;;;;;2.90;54.15;101574.63;5120621;28;20402;-75
2021/01/17 11:45:37;;;;;;;20.60;16.50;;;;;;;1.35;59.35;101583.78;5118798;27;20171;-76
2021/01/17 11:48:03;;;;;;;22.20;18.07;;;;;;;2.47;56.66;101586.88;5118613;28;20435;-76
2021/01/17 11:50:28;;;;;;;23.57;17.27;;;;;;;2.17;58.89;101586.03;5118290;28;20413;-77
2021/01/17 11:53:02;;;;;;;22.50;17.00;;;;;;;2.30;57.30;101587.59;5117839;28;20171;-77
2021/01/17 11:55:28;;;;;;;21.43;16.70;;;;;;;2.19;58.55;101585.31;5118904;28;20250;-76
2021/01/17 11:58:12;;;;;;;24.87;17.53;;;;;;;3.28;55.57;101576.66;5118305;27;20542;-74
2021/01/17 12:00:49;;;;;;;22.97;17.40;;;;;;;2.89;55.20;101572.84;5118189;27;20427;-74
2021/01/17 12:03:28;;;;;;;23.40;18.17;;;;;;;3.26;55.71;101579.94;5118192;28;20473;-76
2021/01/17 12:06:04;;;;;;;23.10;18.40;;;;;;;4.60;52.71;101563.44;5118226;28;20418;-75
2021/01/17 12:08:58;;;;;;;22.43;17.50;;;;;;;3.52;53.55;101573.59;5117591;28;20412;-74
2021/01/17 12:11:27;;;;;;;24.30;19.07;;;;;;;4.34;52.41;101562.16;5118067;28;20452;-75
2021/01/17 12:13:52;;;;;;;21.00;17.70;;;;;;;5.57;49.56;101557.47;5118436;28;20425;-75
2021/01/17 12:16:35;;;;;;;22.17;18.07;;;;;;;4.53;51.65;101562.25;5118085;27;20556;-75
2021/01/17 12:19:01;;;;;;;21.40;17.73;;;;;;;4.83;50.50;101563.59;5118051;28;20228;-76
2021/01/17 12:21:29;;;;;;;22.50;17.90;;;;;;;4.82;50.42;101564.44;5117862;28;20508;-75
2021/01/17 12:23:55;;;;;;;23.33;17.70;;;;;;;4.77;49.93;101566.78;5117985;27;20417;-76